Terminal Aerodrome Forecast
Issued by NWS

Home | Current Version | Previous Version | Text Only | Print | Product List | Glossary On
Versions: 1 2 3 4 5 6 7 8 9 10 11 12 13
000
FTUS42 TJSJ 041735
TAFJSJ
TAF
TJSJ 041735Z 0418/0518 07016G21KT P6SM SCT030 SCT060
     FM042230 09009KT P6SM FEW025
     FM051330 08015G21KT P6SM VCSH SCT040=

USA.gov is the U.S. government's official web portal to all federal, state and local government web resources and services.